Time;durP1;ratioP1;P1;durP2;ratioP2;P2;SDS_P1;SDS_P2;PMS_P1;PMS_P2;Temp;Humidity;BMP_temperature;BMP_pressure;BME280_temperature;BME280_humidity;BME280_pressure;Samples;Min_cycle;Max_cycle;Signal;HPM_P1;HPM_P2
2023/05/07 00:00:23;;;;;;;;;11.67;10.00;;;;;;;;117768;1193;24818;-61
2023/05/07 00:03:13;;;;;;;;;13.67;11.00;;;;;;;;117522;1187;25313;-62
2023/05/07 00:05:42;;;;;;;;;12.25;10.75;;;;;;;;117743;1179;24780;-65
2023/05/07 00:08:11;;;;;;;;;9.00;9.00;;;;;;;;117816;1192;25469;-62
2023/05/07 00:10:39;;;;;;;;;9.25;9.25;;;;;;;;117832;1180;26036;-61
2023/05/07 00:13:08;;;;;;;;;8.50;8.50;;;;;;;;117773;1179;26155;-61
2023/05/07 00:15:36;;;;;;;;;9.00;8.00;;;;;;;;117744;1180;25055;-61
2023/05/07 00:18:05;;;;;;;;;7.00;7.00;;;;;;;;117738;1180;25540;-61
2023/05/07 00:20:33;;;;;;;;;9.33;8.33;;;;;;;;117801;1185;24948;-62
2023/05/07 00:23:03;;;;;;;;;11.00;7.00;;;;;;;;117816;1184;25490;-62
2023/05/07 00:25:31;;;;;;;;;13.50;9.00;;;;;;;;117803;1187;25266;-61
2023/05/07 00:28:03;;;;;;;;;10.33;8.67;;;;;;;;117819;1179;24792;-61
2023/05/07 00:30:32;;;;;;;;;8.33;8.00;;;;;;;;117807;1192;25535;-61
2023/05/07 00:33:00;;;;;;;;;11.25;9.75;;;;;;;;117806;1180;25487;-61
2023/05/07 00:35:29;;;;;;;;;8.75;8.00;;;;;;;;117810;1184;25320;-62
2023/05/07 00:37:58;;;;;;;;;10.67;10.67;;;;;;;;117735;1186;25248;-61
2023/05/07 00:40:26;;;;;;;;;8.50;7.00;;;;;;;;117786;1193;25643;-61
2023/05/07 00:42:57;;;;;;;;;7.67;7.00;;;;;;;;117797;1181;24724;-61
2023/05/07 00:45:28;;;;;;;;;7.50;7.00;;;;;;;;117838;1193;25729;-62
2023/05/07 00:47:59;;;;;;;;;4.25;4.00;;;;;;;;117657;1181;24698;-62
2023/05/07 00:50:28;;;;;;;;;8.50;8.00;;;;;;;;117567;1193;24754;-65
2023/05/07 00:52:57;;;;;;;;;5.00;5.00;;;;;;;;117766;1181;25223;-63
2023/05/07 00:55:25;;;;;;;;;10.33;10.00;;;;;;;;117432;1182;25214;-61
2023/05/07 00:57:54;;;;;;;;;7.25;6.75;;;;;;;;117453;1181;24833;-62
2023/05/07 01:00:24;;;;;;;;;7.67;7.67;;;;;;;;117461;1180;24994;-62
2023/05/07 01:02:53;;;;;;;;;8.00;8.00;;;;;;;;117740;1180;25630;-61
2023/05/07 01:05:24;;;;;;;;;7.00;7.00;;;;;;;;117731;1192;24887;-62
2023/05/07 01:07:54;;;;;;;;;8.50;7.00;;;;;;;;117766;1183;24750;-61
2023/05/07 01:10:24;;;;;;;;;6.67;6.67;;;;;;;;117824;1192;24969;-61
2023/05/07 01:12:54;;;;;;;;;8.00;8.00;;;;;;;;117788;1180;25235;-61
2023/05/07 01:15:23;;;;;;;;;11.33;6.67;;;;;;;;117816;1179;25096;-61
2023/05/07 01:17:51;;;;;;;;;8.00;7.00;;;;;;;;117489;1180;26253;-61
2023/05/07 01:20:20;;;;;;;;;10.00;6.00;;;;;;;;117582;1180;25679;-61
2023/05/07 01:22:49;;;;;;;;;6.00;6.00;;;;;;;;117790;1180;25070;-61
2023/05/07 01:25:18;;;;;;;;;8.00;7.00;;;;;;;;117778;1180;25990;-61
2023/05/07 01:27:46;;;;;;;;;7.00;6.67;;;;;;;;117470;1181;25130;-62
2023/05/07 01:30:17;;;;;;;;;7.00;6.00;;;;;;;;117783;1180;24791;-61
2023/05/07 01:32:51;;;;;;;;;8.00;6.00;;;;;;;;117795;1184;25341;-61
2023/05/07 01:35:24;;;;;;;;;8.50;6.00;;;;;;;;117817;1179;25339;-61
2023/05/07 01:37:53;;;;;;;;;6.00;6.00;;;;;;;;117487;1180;25288;-61
2023/05/07 01:40:22;;;;;;;;;3.50;3.00;;;;;;;;117476;1180;25037;-61
2023/05/07 01:42:50;;;;;;;;;7.00;5.00;;;;;;;;117813;1180;26544;-61
2023/05/07 01:45:19;;;;;;;;;7.50;6.50;;;;;;;;117821;1179;25456;-61
2023/05/07 01:47:48;;;;;;;;;6.33;6.33;;;;;;;;117828;1179;25504;-61
2023/05/07 01:50:18;;;;;;;;;7.00;6.50;;;;;;;;117464;1184;24758;-61
2023/05/07 01:52:48;;;;;;;;;7.50;7.00;;;;;;;;117457;1180;24899;-61
2023/05/07 01:55:16;;;;;;;;;5.25;4.50;;;;;;;;117468;1180;25102;-61
2023/05/07 01:57:44;;;;;;;;;7.00;5.00;;;;;;;;117868;1187;25496;-61
2023/05/07 02:00:13;;;;;;;;;6.00;6.00;;;;;;;;117831;1180;25730;-61
2023/05/07 02:02:42;;;;;;;;;6.33;6.33;;;;;;;;117886;1187;24995;-61
2023/05/07 02:05:10;;;;;;;;;8.00;7.00;;;;;;;;117800;1179;25519;-61
2023/05/07 02:07:39;;;;;;;;;5.33;4.00;;;;;;;;117845;1192;25163;-61
2023/05/07 02:10:08;;;;;;;;;9.75;7.75;;;;;;;;117879;1183;25398;-61
2023/05/07 02:12:36;;;;;;;;;8.00;6.75;;;;;;;;117730;1185;25325;-61
2023/05/07 02:15:06;;;;;;;;;6.75;6.75;;;;;;;;118571;1192;24777;-61
2023/05/07 02:17:35;;;;;;;;;7.00;7.00;;;;;;;;119210;1185;24734;-61
2023/05/07 02:20:04;;;;;;;;;5.67;5.00;;;;;;;;117855;1182;25045;-61
2023/05/07 02:22:33;;;;;;;;;7.00;6.50;;;;;;;;117911;1187;25210;-61
2023/05/07 02:25:01;;;;;;;;;7.00;6.00;;;;;;;;117917;1179;24862;-61
2023/05/07 02:27:30;;;;;;;;;5.00;5.00;;;;;;;;117891;1179;25433;-61
2023/05/07 02:29:58;;;;;;;;;6.67;5.00;;;;;;;;117814;1180;25306;-61
2023/05/07 02:32:27;;;;;;;;;6.25;6.25;;;;;;;;117869;1179;25568;-61
2023/05/07 02:34:55;;;;;;;;;6.00;6.00;;;;;;;;117799;1179;25528;-61
2023/05/07 02:37:24;;;;;;;;;5.33;5.33;;;;;;;;117843;1192;24731;-61
2023/05/07 02:39:52;;;;;;;;;4.00;3.33;;;;;;;;117885;1192;25097;-61
2023/05/07 02:42:20;;;;;;;;;8.00;6.00;;;;;;;;117869;1179;24929;-62
2023/05/07 02:44:49;;;;;;;;;6.00;5.00;;;;;;;;117791;1180;24896;-61
2023/05/07 02:47:18;;;;;;;;;6.00;5.50;;;;;;;;117819;1179;25264;-61
2023/05/07 02:49:47;;;;;;;;;5.67;4.67;;;;;;;;117829;1180;25634;-61
2023/05/07 02:52:15;;;;;;;;;5.00;5.00;;;;;;;;117890;1192;24858;-62
2023/05/07 02:54:43;;;;;;;;;5.00;4.00;;;;;;;;117906;1179;25245;-61
2023/05/07 02:57:12;;;;;;;;;4.50;4.50;;;;;;;;117920;1177;24815;-62
2023/05/07 02:59:42;;;;;;;;;5.50;5.50;;;;;;;;117904;1177;25526;-61
2023/05/07 03:02:10;;;;;;;;;6.00;5.00;;;;;;;;117918;1187;25807;-61
2023/05/07 03:04:39;;;;;;;;;5.33;3.00;;;;;;;;117909;1191;25180;-61
2023/05/07 03:07:08;;;;;;;;;5.33;5.33;;;;;;;;117915;1179;25027;-61
2023/05/07 03:09:36;;;;;;;;;7.00;5.67;;;;;;;;117903;1184;25723;-61
2023/05/07 03:12:05;;;;;;;;;7.50;6.00;;;;;;;;117911;1178;26223;-61
2023/05/07 03:14:33;;;;;;;;;6.00;6.00;;;;;;;;117923;1181;25491;-61
2023/05/07 03:17:02;;;;;;;;;6.50;4.25;;;;;;;;117892;1187;24916;-61
2023/05/07 03:19:30;;;;;;;;;5.00;4.50;;;;;;;;117897;1191;25055;-61
2023/05/07 03:21:59;;;;;;;;;4.33;4.33;;;;;;;;117898;1180;25383;-61
2023/05/07 03:24:27;;;;;;;;;7.33;6.00;;;;;;;;117907;1183;25912;-61
2023/05/07 03:26:57;;;;;;;;;5.00;5.00;;;;;;;;117923;1180;25370;-61
2023/05/07 03:29:25;;;;;;;;;6.25;4.50;;;;;;;;117923;1183;25293;-61
2023/05/07 03:31:54;;;;;;;;;6.00;5.00;;;;;;;;117780;1179;24985;-62
2023/05/07 03:34:23;;;;;;;;;5.25;5.25;;;;;;;;117867;1179;25034;-64
2023/05/07 03:36:52;;;;;;;;;4.00;4.00;;;;;;;;117895;1179;25581;-66
2023/05/07 03:39:20;;;;;;;;;6.00;6.00;;;;;;;;117807;1180;25398;-63
2023/05/07 03:41:49;;;;;;;;;5.33;5.00;;;;;;;;117840;1177;25082;-61
2023/05/07 03:44:17;;;;;;;;;6.50;5.00;;;;;;;;117914;1177;25995;-61
2023/05/07 03:46:46;;;;;;;;;6.50;5.75;;;;;;;;117875;1177;25109;-61
2023/05/07 03:49:14;;;;;;;;;5.00;5.00;;;;;;;;117888;1183;25239;-61
2023/05/07 03:51:43;;;;;;;;;6.67;4.00;;;;;;;;117875;1177;25847;-61
2023/05/07 03:54:11;;;;;;;;;5.00;5.00;;;;;;;;117805;1191;24786;-61
2023/05/07 03:56:40;;;;;;;;;6.33;4.00;;;;;;;;117830;1178;25051;-61
2023/05/07 03:59:08;;;;;;;;;6.00;5.00;;;;;;;;117900;1177;25744;-61
2023/05/07 04:01:37;;;;;;;;;7.00;4.00;;;;;;;;117859;1177;24796;-61
2023/05/07 04:04:06;;;;;;;;;5.00;3.00;;;;;;;;117913;1182;24811;-61
2023/05/07 04:06:34;;;;;;;;;6.50;4.75;;;;;;;;117839;1191;24957;-61
2023/05/07 04:09:03;;;;;;;;;5.00;5.00;;;;;;;;117880;1179;24991;-61
2023/05/07 04:11:31;;;;;;;;;3.50;3.50;;;;;;;;117942;1191;25220;-61
2023/05/07 04:14:00;;;;;;;;;4.00;2.33;;;;;;;;117931;1181;24988;-61
2023/05/07 04:16:28;;;;;;;;;3.00;3.00;;;;;;;;117820;1179;25632;-61
2023/05/07 04:18:57;;;;;;;;;3.25;3.25;;;;;;;;117836;1180;25358;-61
2023/05/07 04:21:26;;;;;;;;;5.33;4.33;;;;;;;;117851;1178;25495;-61
2023/05/07 04:23:55;;;;;;;;;5.00;5.00;;;;;;;;117889;1180;25454;-61
2023/05/07 04:26:24;;;;;;;;;4.33;3.33;;;;;;;;117792;1181;25676;-61
2023/05/07 04:28:52;;;;;;;;;4.67;4.67;;;;;;;;117852;1179;24821;-61
2023/05/07 04:31:21;;;;;;;;;5.00;4.67;;;;;;;;117943;1177;26377;-62
2023/05/07 04:33:50;;;;;;;;;7.00;5.00;;;;;;;;117925;1191;25909;-61
2023/05/07 04:36:18;;;;;;;;;5.00;5.00;;;;;;;;117877;1177;25063;-63
2023/05/07 04:38:47;;;;;;;;;6.33;3.33;;;;;;;;117855;1177;25422;-69
2023/05/07 04:41:16;;;;;;;;;4.00;4.00;;;;;;;;117845;1187;26107;-65
2023/05/07 04:43:45;;;;;;;;;4.00;3.33;;;;;;;;117835;1184;24966;-64
2023/05/07 04:46:14;;;;;;;;;3.33;3.33;;;;;;;;117810;1177;24884;-63
2023/05/07 04:48:42;;;;;;;;;4.00;4.00;;;;;;;;117829;1177;25680;-63
2023/05/07 04:51:11;;;;;;;;;4.75;4.75;;;;;;;;117853;1179;25073;-62
2023/05/07 04:53:39;;;;;;;;;5.67;5.67;;;;;;;;117810;1189;24958;-62
2023/05/07 04:56:08;;;;;;;;;4.75;4.00;;;;;;;;117904;1180;25684;-63
2023/05/07 04:58:36;;;;;;;;;6.00;4.25;;;;;;;;117883;1179;25603;-62
2023/05/07 05:01:04;;;;;;;;;3.67;3.67;;;;;;;;117899;1179;25163;-64
2023/05/07 05:03:33;;;;;;;;;5.67;5.67;;;;;;;;117910;1179;25531;-64
2023/05/07 05:06:02;;;;;;;;;6.75;6.00;;;;;;;;117934;1177;25668;-62
2023/05/07 05:08:31;;;;;;;;;5.00;5.00;;;;;;;;117918;1191;25397;-61
2023/05/07 05:11:02;;;;;;;;;5.00;5.00;;;;;;;;117949;1191;25670;-61
2023/05/07 05:13:30;;;;;;;;;4.00;4.00;;;;;;;;117917;1191;24929;-61
2023/05/07 05:15:58;;;;;;;;;8.50;6.00;;;;;;;;117901;1179;25468;-61
2023/05/07 05:18:27;;;;;;;;;5.75;4.00;;;;;;;;117890;1177;25113;-61
2023/05/07 05:20:55;;;;;;;;;4.00;4.00;;;;;;;;117908;1177;26092;-61
2023/05/07 05:23:24;;;;;;;;;7.00;6.00;;;;;;;;117837;1177;24917;-61
2023/05/07 05:25:59;;;;;;;;;6.50;5.25;;;;;;;;117851;1177;26068;-61
2023/05/07 05:28:27;;;;;;;;;20.50;12.00;;;;;;;;117883;1191;25374;-61
2023/05/07 05:30:56;;;;;;;;;13.50;9.25;;;;;;;;117933;1180;25140;-62
2023/05/07 05:33:24;;;;;;;;;8.33;8.33;;;;;;;;117886;1183;25462;-62
2023/05/07 05:35:56;;;;;;;;;12.75;8.00;;;;;;;;117921;1177;25695;-62
2023/05/07 05:38:25;;;;;;;;;10.25;9.25;;;;;;;;117856;1177;25000;-68
2023/05/07 05:40:54;;;;;;;;;11.33;7.00;;;;;;;;117879;1192;24773;-63
2023/05/07 05:43:23;;;;;;;;;11.00;7.67;;;;;;;;117886;1191;24863;-63
2023/05/07 05:45:52;;;;;;;;;10.75;8.50;;;;;;;;117890;1177;25301;-62
2023/05/07 05:48:20;;;;;;;;;8.00;7.00;;;;;;;;117927;1191;25584;-64
2023/05/07 05:50:49;;;;;;;;;10.00;7.67;;;;;;;;117824;1181;24872;-62
2023/05/07 05:53:18;;;;;;;;;7.50;7.00;;;;;;;;117842;1180;25379;-61
2023/05/07 05:55:47;;;;;;;;;9.00;7.00;;;;;;;;117890;1179;25099;-60
2023/05/07 05:58:17;;;;;;;;;7.75;7.00;;;;;;;;118062;1177;25492;-61
2023/05/07 06:00:48;;;;;;;;;8.67;7.00;;;;;;;;117894;1191;25297;-60
2023/05/07 06:03:17;;;;;;;;;7.00;6.75;;;;;;;;117852;1178;26023;-61
2023/05/07 06:05:46;;;;;;;;;8.00;8.00;;;;;;;;117843;1187;25087;-59
2023/05/07 06:08:15;;;;;;;;;11.67;7.67;;;;;;;;117937;1177;25423;-67
2023/05/07 06:10:44;;;;;;;;;13.50;8.75;;;;;;;;117888;1177;25186;-59
2023/05/07 06:13:14;;;;;;;;;7.25;6.00;;;;;;;;117826;1189;24963;-57
2023/05/07 06:15:43;;;;;;;;;7.67;6.33;;;;;;;;117891;1177;25646;-60
2023/05/07 06:18:12;;;;;;;;;10.75;6.00;;;;;;;;117913;1178;25112;-62
2023/05/07 06:20:41;;;;;;;;;9.00;7.67;;;;;;;;117830;1177;25188;-59
2023/05/07 06:23:11;;;;;;;;;7.00;7.00;;;;;;;;117827;1177;25403;-63
2023/05/07 06:25:48;;;;;;;;;7.75;7.75;;;;;;;;117885;1177;25124;-65
2023/05/07 06:28:17;;;;;;;;;3.50;3.00;;;;;;;;117799;1182;25806;-59
2023/05/07 06:30:48;;;;;;;;;7.33;4.33;;;;;;;;117827;1178;25344;-59
2023/05/07 06:33:19;;;;;;;;;8.50;8.50;;;;;;;;117762;1177;25419;-59
2023/05/07 06:35:48;;;;;;;;;8.75;8.25;;;;;;;;117852;1177;25420;-62
2023/05/07 06:38:17;;;;;;;;;9.00;8.00;;;;;;;;117869;1183;24809;-58
2023/05/07 06:40:49;;;;;;;;;5.67;5.00;;;;;;;;117854;1177;25584;-61
2023/05/07 06:43:18;;;;;;;;;6.00;6.00;;;;;;;;117838;1179;24971;-63
2023/05/07 06:45:48;;;;;;;;;5.25;5.25;;;;;;;;117889;1191;25616;-64
2023/05/07 06:48:17;;;;;;;;;5.50;5.50;;;;;;;;117845;1180;25275;-61
2023/05/07 06:50:46;;;;;;;;;7.00;6.00;;;;;;;;117855;1184;25208;-60
2023/05/07 06:53:15;;;;;;;;;7.00;7.00;;;;;;;;117804;1178;24917;-60
2023/05/07 06:55:44;;;;;;;;;5.67;5.00;;;;;;;;117857;1177;25294;-59
2023/05/07 06:58:13;;;;;;;;;8.67;7.67;;;;;;;;117850;1187;25408;-58
2023/05/07 07:00:42;;;;;;;;;4.25;3.75;;;;;;;;117761;1179;25488;-59
2023/05/07 07:03:11;;;;;;;;;7.67;6.00;;;;;;;;117796;1187;25151;-64
2023/05/07 07:05:42;;;;;;;;;6.00;6.00;;;;;;;;117821;1187;24991;-60
2023/05/07 07:08:10;;;;;;;;;6.00;5.50;;;;;;;;117827;1182;25372;-62
2023/05/07 07:10:39;;;;;;;;;7.67;7.33;;;;;;;;117808;1188;25162;-62
2023/05/07 07:13:08;;;;;;;;;7.00;6.75;;;;;;;;117861;1191;25122;-62
2023/05/07 07:15:38;;;;;;;;;8.00;5.50;;;;;;;;117937;1179;25298;-60
2023/05/07 07:18:07;;;;;;;;;5.50;5.00;;;;;;;;117900;1177;25568;-62
2023/05/07 07:20:36;;;;;;;;;5.00;5.00;;;;;;;;117908;1177;24818;-60
2023/05/07 07:23:05;;;;;;;;;3.00;3.00;;;;;;;;117831;1191;25451;-61
2023/05/07 07:25:34;;;;;;;;;3.33;3.33;;;;;;;;117830;1192;25069;-59
2023/05/07 07:28:03;;;;;;;;;10.00;7.00;;;;;;;;117856;1178;25416;-60
2023/05/07 07:30:32;;;;;;;;;10.00;7.00;;;;;;;;117874;1178;24873;-58
2023/05/07 07:33:03;;;;;;;;;6.67;6.67;;;;;;;;117835;1177;25622;-62
2023/05/07 07:35:32;;;;;;;;;7.75;7.00;;;;;;;;117926;1177;24863;-62
2023/05/07 07:38:01;;;;;;;;;9.33;8.00;;;;;;;;117802;1191;25175;-59
2023/05/07 07:40:30;;;;;;;;;7.25;7.00;;;;;;;;117743;1177;24837;-60
2023/05/07 07:43:00;;;;;;;;;10.00;8.25;;;;;;;;118793;1177;25666;-60
2023/05/07 07:45:29;;;;;;;;;10.50;8.50;;;;;;;;117812;1190;26059;-60
2023/05/07 07:47:57;;;;;;;;;8.50;7.75;;;;;;;;117838;1190;25286;-60
2023/05/07 07:50:26;;;;;;;;;10.00;8.67;;;;;;;;117928;1177;25167;-60
2023/05/07 07:53:11;;;;;;;;;9.25;8.50;;;;;;;;117887;1178;24899;-60
2023/05/07 07:55:40;;;;;;;;;9.75;7.00;;;;;;;;117898;1177;25854;-60
2023/05/07 07:58:09;;;;;;;;;9.00;9.00;;;;;;;;117874;1177;26024;-60
2023/05/07 08:00:37;;;;;;;;;8.00;8.00;;;;;;;;117879;1179;24857;-59
2023/05/07 08:03:07;;;;;;;;;8.33;8.00;;;;;;;;117898;1191;24792;-60
2023/05/07 08:05:36;;;;;;;;;11.67;11.33;;;;;;;;117859;1179;25756;-59
2023/05/07 08:08:05;;;;;;;;;16.50;9.25;;;;;;;;117901;1191;25157;-59
2023/05/07 08:10:34;;;;;;;;;11.25;11.25;;;;;;;;117937;1177;25332;-59
2023/05/07 08:13:03;;;;;;;;;8.00;7.50;;;;;;;;117841;1178;25770;-59
2023/05/07 08:15:32;;;;;;;;;10.00;9.50;;;;;;;;117878;1178;25716;-60
2023/05/07 08:18:01;;;;;;;;;13.50;9.00;;;;;;;;117792;1179;25941;-60
2023/05/07 08:20:30;;;;;;;;;10.33;10.00;;;;;;;;119228;1179;25948;-61
2023/05/07 08:22:58;;;;;;;;;9.25;8.50;;;;;;;;117799;1179;25116;-61
2023/05/07 08:25:27;;;;;;;;;10.00;9.00;;;;;;;;117819;1184;25041;-62
2023/05/07 08:27:55;;;;;;;;;8.00;7.00;;;;;;;;117830;1180;25472;-60
2023/05/07 08:30:24;;;;;;;;;12.00;11.00;;;;;;;;117819;1179;25056;-60
2023/05/07 08:32:53;;;;;;;;;10.50;7.25;;;;;;;;117800;1191;25355;-61
2023/05/07 08:35:22;;;;;;;;;11.50;8.00;;;;;;;;117793;1177;25058;-61
2023/05/07 08:37:50;;;;;;;;;11.25;8.00;;;;;;;;117789;1187;24720;-60
2023/05/07 08:40:19;;;;;;;;;9.00;9.00;;;;;;;;117854;1177;25394;-60
2023/05/07 08:42:50;;;;;;;;;12.00;9.25;;;;;;;;117852;1180;25669;-58
2023/05/07 08:45:19;;;;;;;;;10.75;9.00;;;;;;;;117775;1179;25459;-58
2023/05/07 08:47:52;;;;;;;;;11.50;10.00;;;;;;;;117797;1177;25063;-57
2023/05/07 08:50:21;;;;;;;;;10.00;10.00;;;;;;;;117857;1177;25640;-57
2023/05/07 08:52:49;;;;;;;;;8.67;7.67;;;;;;;;117882;1179;24823;-58
2023/05/07 08:55:18;;;;;;;;;12.67;11.00;;;;;;;;117889;1192;25101;-61
2023/05/07 08:57:47;;;;;;;;;8.00;8.00;;;;;;;;117833;1178;25474;-60
2023/05/07 09:00:17;;;;;;;;;8.67;7.67;;;;;;;;117798;1182;25387;-59
2023/05/07 09:02:45;;;;;;;;;7.25;7.25;;;;;;;;117789;1183;24944;-59
2023/05/07 09:05:14;;;;;;;;;13.33;9.33;;;;;;;;117880;1178;24696;-62
2023/05/07 09:07:42;;;;;;;;;8.67;6.67;;;;;;;;117902;1178;25797;-61
2023/05/07 09:10:11;;;;;;;;;9.00;8.00;;;;;;;;117883;1181;25158;-61
2023/05/07 09:12:40;;;;;;;;;10.67;9.33;;;;;;;;117900;1183;25325;-62
2023/05/07 09:15:09;;;;;;;;;9.33;9.00;;;;;;;;117825;1191;25005;-62
2023/05/07 09:17:38;;;;;;;;;9.00;9.00;;;;;;;;117836;1179;25427;-60
2023/05/07 09:20:08;;;;;;;;;10.50;9.00;;;;;;;;117762;1182;24866;-60
2023/05/07 09:22:38;;;;;;;;;9.33;7.67;;;;;;;;117803;1191;25699;-62
2023/05/07 09:25:08;;;;;;;;;8.50;8.50;;;;;;;;117843;1179;25262;-59
2023/05/07 09:27:38;;;;;;;;;9.33;8.00;;;;;;;;117862;1191;25060;-62
2023/05/07 09:30:07;;;;;;;;;9.67;8.33;;;;;;;;117901;1183;25043;-59
2023/05/07 09:32:37;;;;;;;;;11.00;8.00;;;;;;;;117864;1179;24823;-60
2023/05/07 09:35:15;;;;;;;;;7.00;7.00;;;;;;;;117819;1180;25438;-60
2023/05/07 09:37:44;;;;;;;;;6.50;6.25;;;;;;;;117829;1179;24908;-60
2023/05/07 09:40:27;;;;;;;;;10.50;7.00;;;;;;;;117853;1184;25459;-60
2023/05/07 09:42:55;;;;;;;;;8.50;8.50;;;;;;;;117853;1184;25029;-60
2023/05/07 09:45:28;;;;;;;;;7.00;7.00;;;;;;;;117930;1179;25603;-59
2023/05/07 09:47:58;;;;;;;;;10.00;8.00;;;;;;;;117869;1179;24731;-59
2023/05/07 09:50:29;;;;;;;;;7.00;6.00;;;;;;;;117865;1179;25676;-59
2023/05/07 09:52:58;;;;;;;;;8.75;8.75;;;;;;;;117790;1189;25155;-60
2023/05/07 09:55:27;;;;;;;;;7.50;6.75;;;;;;;;117905;1183;25519;-60
2023/05/07 09:57:55;;;;;;;;;10.00;7.50;;;;;;;;117842;1191;24898;-59
2023/05/07 10:00:25;;;;;;;;;10.25;10.00;;;;;;;;117828;1190;25271;-67
2023/05/07 10:02:57;;;;;;;;;4.67;4.33;;;;;;;;117880;1191;25086;-58
2023/05/07 10:05:25;;;;;;;;;10.50;9.25;;;;;;;;117885;1188;25455;-61
2023/05/07 10:07:55;;;;;;;;;9.33;8.67;;;;;;;;117845;1187;24709;-61
2023/05/07 10:10:24;;;;;;;;;12.00;9.50;;;;;;;;117896;1181;24845;-60
2023/05/07 10:12:53;;;;;;;;;7.50;6.50;;;;;;;;117884;1179;24937;-61
2023/05/07 10:15:21;;;;;;;;;8.00;7.50;;;;;;;;117808;1181;25196;-61
2023/05/07 10:17:51;;;;;;;;;16.67;12.00;;;;;;;;117861;1191;26149;-61
2023/05/07 10:20:20;;;;;;;;;10.00;10.00;;;;;;;;117724;1181;24894;-61
2023/05/07 10:22:50;;;;;;;;;9.50;8.00;;;;;;;;117872;1192;25765;-61
2023/05/07 10:25:23;;;;;;;;;10.00;8.50;;;;;;;;117846;1179;24934;-67
2023/05/07 10:27:53;;;;;;;;;11.33;11.33;;;;;;;;117830;1191;25085;-62
2023/05/07 10:31:05;;;;;;;;;11.00;11.00;;;;;;;;117758;1179;24929;-62
2023/05/07 10:33:34;;;;;;;;;10.25;9.75;;;;;;;;117805;1188;25620;-65
2023/05/07 10:36:04;;;;;;;;;13.00;9.33;;;;;;;;117785;1184;25619;-69
2023/05/07 10:38:33;;;;;;;;;10.00;9.00;;;;;;;;117831;1189;25231;-61
2023/05/07 10:41:04;;;;;;;;;11.67;9.67;;;;;;;;117811;1179;25328;-61
2023/05/07 10:43:41;;;;;;;;;12.00;8.67;;;;;;;;118408;1180;25630;-61
2023/05/07 10:46:16;;;;;;;;;10.75;9.50;;;;;;;;118424;1191;25183;-59
2023/05/07 10:49:03;;;;;;;;;11.33;10.00;;;;;;;;117877;1191;24960;-59
2023/05/07 10:51:32;;;;;;;;;8.33;6.67;;;;;;;;117916;1180;25315;-61
2023/05/07 10:54:10;;;;;;;;;7.33;5.00;;;;;;;;117884;1180;25507;-59
2023/05/07 10:56:43;;;;;;;;;9.00;8.50;;;;;;;;117866;1177;25721;-61
2023/05/07 10:59:20;;;;;;;;;8.00;6.00;;;;;;;;117871;1180;25618;-59
2023/05/07 11:01:59;;;;;;;;;9.00;8.33;;;;;;;;117825;1177;25248;-60
2023/05/07 11:04:31;;;;;;;;;9.00;9.00;;;;;;;;117814;1177;25527;-62
2023/05/07 11:07:05;;;;;;;;;11.00;10.00;;;;;;;;117872;1184;25738;-59
2023/05/07 11:09:52;;;;;;;;;6.50;6.00;;;;;;;;117840;1179;25038;-59
2023/05/07 11:12:37;;;;;;;;;12.00;9.33;;;;;;;;117835;1183;25512;-60
2023/05/07 11:15:15;;;;;;;;;10.33;8.00;;;;;;;;117814;1177;25245;-59
2023/05/07 11:17:58;;;;;;;;;9.50;8.25;;;;;;;;117835;1187;25412;-61
2023/05/07 11:20:59;;;;;;;;;8.00;8.00;;;;;;;;117822;1177;24881;-61
2023/05/07 11:23:34;;;;;;;;;9.33;8.67;;;;;;;;117610;1181;25627;-62
2023/05/07 11:26:09;;;;;;;;;9.00;9.00;;;;;;;;117874;1179;25349;-61
2023/05/07 11:28:41;;;;;;;;;10.00;9.00;;;;;;;;117906;1177;25360;-63
2023/05/07 11:31:10;;;;;;;;;9.25;8.00;;;;;;;;117825;1191;25021;-63
2023/05/07 11:33:38;;;;;;;;;10.00;8.50;;;;;;;;117833;1182;25110;-64
2023/05/07 11:36:08;;;;;;;;;6.50;6.50;;;;;;;;117874;1187;24838;-63
2023/05/07 11:38:38;;;;;;;;;10.50;6.25;;;;;;;;117842;1182;25536;-63
2023/05/07 11:41:07;;;;;;;;;10.25;9.25;;;;;;;;117859;1182;25703;-61
2023/05/07 11:43:36;;;;;;;;;7.67;6.33;;;;;;;;117873;1187;25173;-63
2023/05/07 11:46:12;;;;;;;;;11.75;8.50;;;;;;;;117886;1179;25586;-62
2023/05/07 11:48:41;;;;;;;;;7.50;7.50;;;;;;;;117841;1180;24856;-62
2023/05/07 11:51:11;;;;;;;;;9.50;9.50;;;;;;;;117852;1177;25362;-62
2023/05/07 11:53:42;;;;;;;;;6.75;6.75;;;;;;;;117873;1177;25118;-66
2023/05/07 11:56:13;;;;;;;;;9.00;7.33;;;;;;;;117829;1177;25578;-62
2023/05/07 11:58:42;;;;;;;;;10.75;9.00;;;;;;;;117853;1188;25752;-62
2023/05/07 12:01:12;;;;;;;;;10.33;8.00;;;;;;;;117793;1179;25046;-62
2023/05/07 12:03:45;;;;;;;;;12.00;8.33;;;;;;;;117876;1184;25142;-62
2023/05/07 12:06:16;;;;;;;;;10.00;9.00;;;;;;;;117853;1179;24833;-62
2023/05/07 12:08:45;;;;;;;;;10.50;9.00;;;;;;;;117576;1180;25595;-63
2023/05/07 12:11:22;;;;;;;;;9.25;7.75;;;;;;;;117873;1181;25015;-63
2023/05/07 12:13:50;;;;;;;;;7.00;5.50;;;;;;;;117828;1177;25331;-63
2023/05/07 12:16:19;;;;;;;;;7.00;7.00;;;;;;;;117836;1190;25758;-62
2023/05/07 12:18:49;;;;;;;;;7.75;7.75;;;;;;;;117850;1179;25509;-62
2023/05/07 12:21:17;;;;;;;;;12.00;10.00;;;;;;;;117893;1191;24964;-65
2023/05/07 12:23:46;;;;;;;;;7.33;6.00;;;;;;;;117947;1180;24758;-62
2023/05/07 12:26:15;;;;;;;;;17.25;17.25;;;;;;;;117885;1191;24705;-61
2023/05/07 12:28:43;;;;;;;;;13.00;11.33;;;;;;;;117858;1177;25673;-61
2023/05/07 12:31:14;;;;;;;;;16.00;14.25;;;;;;;;117843;1177;25660;-60
2023/05/07 12:33:43;;;;;;;;;13.00;13.00;;;;;;;;117788;1191;25069;-61
2023/05/07 12:36:13;;;;;;;;;15.00;12.67;;;;;;;;117845;1177;25070;-59
2023/05/07 12:38:41;;;;;;;;;14.25;12.50;;;;;;;;117847;1191;25559;-60
2023/05/07 12:41:12;;;;;;;;;16.25;13.75;;;;;;;;117811;1182;25366;-60
2023/05/07 12:43:44;;;;;;;;;16.00;12.00;;;;;;;;117865;1179;25188;-61
2023/05/07 12:46:18;;;;;;;;;11.00;11.00;;;;;;;;117903;1180;25650;-63
2023/05/07 12:48:46;;;;;;;;;15.00;10.25;;;;;;;;117906;1177;24943;-61
2023/05/07 12:51:15;;;;;;;;;10.00;8.33;;;;;;;;117941;1179;25510;-61
2023/05/07 12:53:45;;;;;;;;;15.50;11.50;;;;;;;;117895;1188;25344;-62
2023/05/07 12:56:16;;;;;;;;;16.25;11.50;;;;;;;;117912;1184;24934;-61
2023/05/07 12:58:44;;;;;;;;;15.50;12.75;;;;;;;;117891;1181;24981;-61
2023/05/07 13:01:15;;;;;;;;;12.50;8.50;;;;;;;;117881;1177;24923;-60
2023/05/07 13:03:50;;;;;;;;;15.25;12.75;;;;;;;;117911;1178;24878;-60
2023/05/07 13:06:18;;;;;;;;;9.50;7.00;;;;;;;;117941;1177;25007;-61
2023/05/07 13:08:47;;;;;;;;;11.50;9.50;;;;;;;;117903;1177;24881;-60
2023/05/07 13:11:15;;;;;;;;;14.00;10.00;;;;;;;;117897;1177;25228;-60
2023/05/07 13:13:43;;;;;;;;;14.00;11.00;;;;;;;;117825;1177;25629;-60
2023/05/07 13:16:12;;;;;;;;;12.75;11.00;;;;;;;;117815;1177;25602;-60
2023/05/07 13:18:43;;;;;;;;;11.50;10.00;;;;;;;;117846;1178;25554;-61
2023/05/07 13:21:12;;;;;;;;;16.00;14.00;;;;;;;;117841;1180;25062;-61
2023/05/07 13:23:41;;;;;;;;;10.00;7.33;;;;;;;;117844;1191;24998;-61
2023/05/07 13:26:10;;;;;;;;;10.25;10.00;;;;;;;;117899;1183;25282;-62
2023/05/07 13:28:54;;;;;;;;;10.33;8.00;;;;;;;;117855;1177;24906;-67
2023/05/07 13:31:23;;;;;;;;;10.50;8.50;;;;;;;;117779;1180;25418;-62
2023/05/07 13:33:52;;;;;;;;;9.50;6.00;;;;;;;;117852;1177;25187;-62
2023/05/07 13:36:21;;;;;;;;;10.00;10.00;;;;;;;;117856;1177;25279;-61
2023/05/07 13:38:51;;;;;;;;;12.67;10.33;;;;;;;;117866;1177;24785;-61
2023/05/07 13:41:20;;;;;;;;;11.50;9.00;;;;;;;;117844;1183;25532;-61
2023/05/07 13:43:48;;;;;;;;;8.67;8.33;;;;;;;;117788;1179;25787;-62
2023/05/07 13:46:17;;;;;;;;;12.75;9.00;;;;;;;;117860;1178;25581;-61
2023/05/07 13:48:46;;;;;;;;;8.50;8.50;;;;;;;;117820;1177;25218;-62
2023/05/07 13:51:14;;;;;;;;;11.67;9.00;;;;;;;;117885;1177;25389;-61
2023/05/07 13:53:43;;;;;;;;;10.67;10.33;;;;;;;;117877;1191;24720;-62
2023/05/07 13:56:11;;;;;;;;;14.50;10.00;;;;;;;;117894;1191;24749;-62
2023/05/07 13:58:40;;;;;;;;;12.67;10.00;;;;;;;;117810;1181;25286;-62
2023/05/07 14:01:23;;;;;;;;;12.00;11.00;;;;;;;;117814;1177;24875;-70
2023/05/07 14:03:52;;;;;;;;;8.50;8.50;;;;;;;;117823;1190;24782;-62
2023/05/07 14:06:21;;;;;;;;;10.00;9.00;;;;;;;;117855;1177;25301;-61
2023/05/07 14:08:50;;;;;;;;;14.25;10.50;;;;;;;;117851;1177;25049;-63
2023/05/07 14:11:18;;;;;;;;;11.75;10.00;;;;;;;;117835;1177;25392;-61
2023/05/07 14:13:47;;;;;;;;;10.00;9.33;;;;;;;;117876;1187;24821;-62
2023/05/07 14:16:16;;;;;;;;;7.00;7.00;;;;;;;;117869;1177;24913;-64
2023/05/07 14:18:44;;;;;;;;;8.00;6.75;;;;;;;;117801;1191;25512;-62
2023/05/07 14:21:13;;;;;;;;;13.00;8.50;;;;;;;;117836;1180;24811;-62
2023/05/07 14:23:42;;;;;;;;;10.67;9.33;;;;;;;;117890;1177;25427;-62
2023/05/07 14:26:10;;;;;;;;;9.00;7.67;;;;;;;;117738;1183;26325;-63
2023/05/07 14:28:39;;;;;;;;;8.00;7.67;;;;;;;;117832;1187;24763;-63
2023/05/07 14:31:07;;;;;;;;;7.00;7.00;;;;;;;;117861;1191;24817;-62
2023/05/07 14:33:36;;;;;;;;;8.00;7.00;;;;;;;;117816;1177;25908;-62
2023/05/07 14:36:08;;;;;;;;;8.00;7.00;;;;;;;;117833;1177;24982;-62
2023/05/07 14:38:36;;;;;;;;;6.33;6.33;;;;;;;;117811;1179;25473;-61